createdAt,value
2022-08-10T00:01:39.692Z,98986.34
2022-08-10T00:04:07.785Z,98994.34
2022-08-10T00:06:35.946Z,98989.06
2022-08-10T00:09:05.425Z,98991.56
2022-08-10T00:11:33.249Z,98994.94
2022-08-10T00:14:02.053Z,98985.78
2022-08-10T00:16:29.874Z,98984.38
2022-08-10T00:18:57.646Z,98980.50
2022-08-10T00:21:27.141Z,98984.59
2022-08-10T00:23:55.227Z,98985.63
2022-08-10T00:26:24.394Z,98974.72
2022-08-10T00:28:52.669Z,98976.78
2022-08-10T00:31:20.555Z,98982.88
2022-08-10T00:33:48.299Z,98984.75
2022-08-10T00:36:16.641Z,98970.84
2022-08-10T00:38:44.514Z,98985.25
2022-08-10T00:41:12.359Z,98972.22
2022-08-10T00:43:41.874Z,98974.78
2022-08-10T00:46:09.794Z,98976.59
2022-08-10T00:48:37.749Z,98981.06
2022-08-10T00:51:06.353Z,98980.03
2022-08-10T00:53:34.298Z,98982.53
2022-08-10T00:57:09.993Z,98976.38
2022-08-10T00:58:51.959Z,98973.38
2022-08-10T01:02:09.436Z,98979.31
2022-08-10T01:04:57.860Z,98977.31
2022-08-10T01:07:14.813Z,98968.28
2022-08-10T01:09:56.971Z,98969.06
2022-08-10T01:12:38.312Z,98973.16
2022-08-10T01:15:20.015Z,98970.41
2022-08-10T01:17:54.888Z,98972.72
2022-08-10T01:20:31.230Z,98964.84
2022-08-10T01:23:39.013Z,98962.13
2022-08-10T01:26:31.555Z,98973.41
2022-08-10T01:29:18.986Z,98961.78
2022-08-10T01:31:54.311Z,98965.09
2022-08-10T01:34:26.528Z,98967.38
2022-08-10T01:36:59.546Z,98967.25
2022-08-10T01:39:31.313Z,98971.91
2022-08-10T01:42:01.237Z,98970.09
2022-08-10T01:44:33.362Z,98974.63
2022-08-10T01:47:24.743Z,98964.25
2022-08-10T01:50:03.217Z,98963.25
2022-08-10T01:52:33.179Z,98968.50
2022-08-10T01:55:01.234Z,98969.88
2022-08-10T01:57:32.304Z,98965.16
2022-08-10T02:00:03.500Z,98966.75
2022-08-10T02:02:36.025Z,98968.63
2022-08-10T02:05:06.681Z,98967.59
2022-08-10T02:07:37.883Z,98955.22
2022-08-10T02:10:12.181Z,98972.56
2022-08-10T02:12:41.924Z,98969.56
2022-08-10T02:15:15.593Z,98959.53
2022-08-10T02:17:59.322Z,98965.00
2022-08-10T02:20:34.577Z,98959.41
2022-08-10T02:23:08.615Z,98963.69
2022-08-10T02:25:41.673Z,98967.41
2022-08-10T02:28:30.575Z,98963.94
2022-08-10T02:31:04.267Z,98968.13
2022-08-10T02:33:38.368Z,98973.28
2022-08-10T02:36:09.861Z,98975.06
2022-08-10T02:38:57.479Z,98971.66
2022-08-10T02:45:13.001Z,98971.94
2022-08-10T02:45:26.453Z,98971.28
2022-08-10T02:47:22.978Z,98974.28
2022-08-10T02:49:58.458Z,98979.88
2022-08-10T02:52:36.507Z,98981.41
2022-08-10T02:55:18.279Z,98983.25
2022-08-10T02:58:13.842Z,98978.72
2022-08-10T03:00:43.373Z,98984.88
2022-08-10T03:03:16.475Z,98987.63
2022-08-10T03:05:48.139Z,98986.03
2022-08-10T03:08:20.477Z,98988.44
2022-08-10T03:10:50.329Z,98993.22
2022-08-10T03:13:20.130Z,98997.91
2022-08-10T03:15:49.151Z,98998.78
2022-08-10T03:18:19.535Z,99004.06
2022-08-10T03:20:50.620Z,99000.72
2022-08-10T03:23:20.517Z,99004.34
2022-08-10T03:25:53.615Z,99008.09
2022-08-10T03:28:24.496Z,99007.03
2022-08-10T03:30:53.790Z,99006.91
2022-08-10T03:33:23.236Z,99011.69
2022-08-10T03:36:42.600Z,99011.47
2022-08-10T03:38:41.461Z,99017.16
2022-08-10T03:41:16.210Z,99008.38
2022-08-10T03:43:47.746Z,99013.84
2022-08-10T03:46:19.360Z,99025.44
2022-08-10T03:48:51.155Z,99027.38
2022-08-10T03:51:22.810Z,99019.66
2022-08-10T03:54:04.472Z,99016.66
2022-08-10T03:56:40.339Z,99016.97
2022-08-10T03:59:15.122Z,98997.69
2022-08-10T04:02:46.580Z,99015.50
2022-08-10T04:04:32.064Z,99021.22
2022-08-10T04:07:03.441Z,99023.69
2022-08-10T04:09:55.668Z,99022.53
2022-08-10T04:12:21.598Z,99027.25
2022-08-10T04:14:52.479Z,99035.59
2022-08-10T04:18:01.397Z,99031.88
2022-08-10T04:20:18.454Z,99036.81
2022-08-10T04:22:50.877Z,99027.84
2022-08-10T04:25:20.283Z,99042.06
2022-08-10T04:27:49.390Z,99039.28
2022-08-10T04:30:17.337Z,99046.78
2022-08-10T04:32:48.037Z,99040.81
2022-08-10T04:35:19.872Z,99047.84
2022-08-10T04:37:50.382Z,99048.41
2022-08-10T04:40:28.638Z,99053.16
2022-08-10T04:43:09.071Z,99052.44
2022-08-10T04:45:49.471Z,99057.50
2022-08-10T04:48:40.577Z,99055.97
2022-08-10T04:51:17.303Z,99047.16
2022-08-10T04:54:02.797Z,99049.94
2022-08-10T04:56:35.382Z,99058.31
2022-08-10T04:59:03.588Z,99051.63
2022-08-10T05:02:22.059Z,99052.13
2022-08-10T05:04:37.948Z,99063.56
2022-08-10T05:07:08.589Z,99064.88
2022-08-10T05:10:00.986Z,99059.84
2022-08-10T05:12:27.712Z,99063.66
2022-08-10T05:14:56.329Z,99061.13
2022-08-10T05:17:25.306Z,99062.47
2022-08-10T05:20:02.137Z,99068.59
2022-08-10T05:22:34.548Z,99068.78
2022-08-10T05:25:04.159Z,99066.94
2022-08-10T05:27:31.918Z,99068.72
2022-08-10T05:30:01.197Z,99057.28
2022-08-10T05:32:31.077Z,99060.63
2022-08-10T05:34:59.116Z,99060.78
2022-08-10T05:38:09.148Z,99061.88
2022-08-10T05:40:19.933Z,99051.78
2022-08-10T05:42:48.469Z,99065.44
2022-08-10T05:45:22.174Z,99061.34
2022-08-10T05:48:42.183Z,99062.69
2022-08-10T05:50:38.319Z,99071.91
2022-08-10T05:54:01.309Z,99059.66
2022-08-10T05:55:56.360Z,99061.44
2022-08-10T05:58:24.482Z,99074.47
2022-08-10T06:00:55.268Z,99071.56
2022-08-10T06:03:28.666Z,99073.34
2022-08-10T06:05:59.773Z,99071.91
2022-08-10T06:08:31.657Z,99064.28
2022-08-10T06:12:26.869Z,99071.38
2022-08-10T06:14:13.804Z,99069.50
2022-08-10T06:16:45.071Z,99081.47
2022-08-10T06:19:15.065Z,99078.03
2022-08-10T06:21:55.311Z,99079.97
2022-08-10T06:24:31.183Z,99075.03
2022-08-10T06:27:00.913Z,99079.72
2022-08-10T06:29:33.086Z,99082.81
2022-08-10T06:32:02.763Z,99069.25
2022-08-10T06:34:33.673Z,99081.75
2022-08-10T06:37:04.438Z,99079.13
2022-08-10T06:39:34.988Z,99082.03
2022-08-10T06:42:16.416Z,99072.16
2022-08-10T06:44:53.436Z,99074.59
2022-08-10T06:47:24.426Z,99084.22
2022-08-10T06:49:59.890Z,99087.63
2022-08-10T06:52:29.827Z,99072.84
2022-08-10T06:55:00.382Z,99073.84
2022-08-10T06:57:34.227Z,99071.59
2022-08-10T07:00:08.069Z,99063.81
2022-08-10T07:02:42.634Z,99080.47
2022-08-10T07:05:16.059Z,99083.38
2022-08-10T07:07:45.279Z,99076.84
2022-08-10T07:10:17.266Z,99074.25
2022-08-10T07:12:47.744Z,99073.91
2022-08-10T07:15:17.309Z,99080.13
2022-08-10T07:17:47.193Z,99071.34
2022-08-10T07:20:17.942Z,99080.81
2022-08-10T07:23:54.743Z,99075.94
2022-08-10T07:25:38.449Z,99078.97
2022-08-10T07:28:09.293Z,99083.91
2022-08-10T07:30:39.080Z,99080.13
2022-08-10T07:33:08.513Z,99082.69
2022-08-10T07:35:42.595Z,99076.88
2022-08-10T07:38:18.765Z,99078.19
2022-08-10T07:40:50.450Z,99078.94
2022-08-10T07:43:22.910Z,99077.38
2022-08-10T07:45:51.353Z,99083.50
2022-08-10T07:48:23.930Z,99084.19
2022-08-10T07:50:55.115Z,99083.75
2022-08-10T07:53:27.406Z,99092.09
2022-08-10T07:56:05.099Z,99087.75
2022-08-10T07:58:52.493Z,99090.63
2022-08-10T08:01:21.658Z,99088.94
2022-08-10T08:04:06.037Z,99094.31
2022-08-10T08:06:39.084Z,99090.13
2022-08-10T08:09:07.470Z,99089.44
2022-08-10T08:11:37.421Z,99089.16
2022-08-10T08:14:08.541Z,99089.88
2022-08-10T08:16:40.000Z,99087.25
2022-08-10T08:24:10.407Z,99075.13
2022-08-10T08:24:45.827Z,99076.72
2022-08-10T08:27:16.742Z,99083.50
2022-08-10T08:29:48.050Z,99076.34
2022-08-10T08:32:17.693Z,99077.97
2022-08-10T08:34:47.379Z,99076.00
2022-08-10T08:37:18.838Z,99075.59
2022-08-10T08:40:11.594Z,99070.06
2022-08-10T08:43:06.532Z,99068.41
2022-08-10T08:46:01.563Z,99061.94
2022-08-10T08:48:46.662Z,99060.00
2022-08-10T08:52:17.072Z,99058.09
2022-08-10T08:54:23.780Z,99056.59
2022-08-10T08:57:03.858Z,99055.31
2022-08-10T08:59:52.063Z,99044.53
2022-08-10T09:02:40.364Z,99049.22
2022-08-10T09:05:27.798Z,99053.03
2022-08-10T09:08:41.482Z,99054.44
2022-08-10T09:11:24.928Z,99034.84
2022-08-10T09:14:01.329Z,99051.75
2022-08-10T09:16:36.264Z,99050.38
2022-08-10T09:19:35.006Z,99053.00
2022-08-10T09:22:17.331Z,99048.38
2022-08-10T09:24:53.816Z,99041.69
2022-08-10T09:27:23.875Z,99049.25
2022-08-10T09:29:55.786Z,99050.94
2022-08-10T09:36:13.789Z,99040.69
2022-08-10T09:36:24.755Z,99020.84
2022-08-10T09:38:25.546Z,99043.06
2022-08-10T09:41:04.190Z,99034.72
2022-08-10T09:43:48.987Z,99039.09
2022-08-10T09:46:29.042Z,99037.09
2022-08-10T09:49:06.715Z,99027.59
2022-08-10T09:51:48.078Z,99035.06
2022-08-10T09:54:30.965Z,99024.59
2022-08-10T09:57:44.166Z,99027.56
2022-08-10T10:00:09.090Z,99023.97
2022-08-10T10:02:47.200Z,99027.00
2022-08-10T10:05:31.854Z,99024.44
2022-08-10T10:08:08.642Z,99013.31
2022-08-10T10:10:46.643Z,99013.13
2022-08-10T10:13:41.528Z,99010.81
2022-08-10T10:16:23.222Z,99005.94
2022-08-10T10:19:02.650Z,99011.00
2022-08-10T10:21:55.567Z,99016.78
2022-08-10T10:24:36.795Z,99012.03
2022-08-10T10:27:19.810Z,99011.09
2022-08-10T10:29:56.972Z,98996.31
2022-08-10T10:32:37.624Z,99008.97
2022-08-10T10:35:16.044Z,99003.59
2022-08-10T10:38:01.755Z,99002.75
2022-08-10T10:40:44.866Z,99009.88
2022-08-10T10:43:27.096Z,98986.84
2022-08-10T10:46:04.455Z,98996.88
2022-08-10T10:48:41.209Z,98996.78
2022-08-10T10:51:17.619Z,98993.09
2022-08-10T10:53:53.591Z,98991.56
2022-08-10T10:56:32.098Z,98991.88
2022-08-10T10:59:53.995Z,98987.50
2022-08-10T11:02:07.457Z,98996.38
2022-08-10T11:04:41.613Z,98991.38
2022-08-10T11:07:21.930Z,98988.00
2022-08-10T11:10:05.480Z,98981.88
2022-08-10T11:12:54.102Z,98984.50
2022-08-10T11:15:28.020Z,98984.44
2022-08-10T11:18:02.477Z,98974.28
2022-08-10T11:20:39.866Z,98988.91
2022-08-10T11:23:21.213Z,98990.34
2022-08-10T11:25:59.673Z,98982.03
2022-08-10T11:28:36.883Z,98978.63
2022-08-10T11:31:10.751Z,98980.78
2022-08-10T11:34:11.218Z,98981.91
2022-08-10T11:36:42.829Z,98982.13
2022-08-10T11:39:17.237Z,98983.94
2022-08-10T11:42:11.594Z,98983.16
2022-08-10T11:44:49.296Z,98976.31
2022-08-10T11:47:21.128Z,98974.69
2022-08-10T11:49:54.637Z,98971.09
2022-08-10T11:52:32.596Z,98977.84
2022-08-10T11:55:10.840Z,98972.47
2022-08-10T11:57:54.900Z,98974.72
2022-08-10T12:00:34.904Z,98971.53
2022-08-10T12:03:07.007Z,98956.75
2022-08-10T12:05:53.792Z,98960.97
2022-08-10T12:10:03.548Z,98952.53
2022-08-10T12:11:24.579Z,98959.03
2022-08-10T12:14:19.706Z,98954.53
2022-08-10T12:16:52.355Z,98939.59
2022-08-10T12:19:28.521Z,98955.03
2022-08-10T12:22:05.803Z,98946.03
2022-08-10T12:24:38.922Z,98948.38
2022-08-10T12:27:13.233Z,98938.06
2022-08-10T12:29:47.265Z,98931.03
2022-08-10T12:32:25.895Z,98945.19
2022-08-10T12:35:04.433Z,98928.88
2022-08-10T12:37:39.562Z,98932.16
2022-08-10T12:43:15.256Z,98934.88
2022-08-10T12:46:06.939Z,98924.81
2022-08-10T12:48:42.909Z,98924.13
2022-08-10T12:51:15.764Z,98921.00
2022-08-10T12:53:51.144Z,98916.44
2022-08-10T12:56:25.421Z,98914.44
2022-08-10T12:58:58.910Z,98905.78
2022-08-10T13:02:10.119Z,98908.84
2022-08-10T13:04:30.636Z,98905.44
2022-08-10T13:07:01.155Z,98907.25
2022-08-10T13:09:29.148Z,98897.56
2022-08-10T13:12:38.989Z,98907.75
2022-08-10T13:14:54.561Z,98907.59
2022-08-10T13:17:32.285Z,98897.03
2022-08-10T13:20:15.927Z,98900.97
2022-08-10T13:22:47.826Z,98898.63
2022-08-10T13:25:21.172Z,98894.13
2022-08-10T13:28:01.273Z,98899.09
2022-08-10T13:30:41.643Z,98890.72
2022-08-10T13:33:12.040Z,98878.81
2022-08-10T13:35:45.090Z,98885.59
2022-08-10T13:38:16.214Z,98875.69
2022-08-10T13:40:48.626Z,98874.16
2022-08-10T13:43:18.256Z,98878.72
2022-08-10T13:45:50.093Z,98869.00
2022-08-10T13:48:21.775Z,98861.69
2022-08-10T13:50:53.303Z,98863.97
2022-08-10T13:53:23.009Z,98871.16
2022-08-10T13:55:56.474Z,98872.41
2022-08-10T13:58:27.899Z,98869.34
2022-08-10T14:00:57.001Z,98872.63
2022-08-10T14:03:26.761Z,98866.81
2022-08-10T14:05:58.518Z,98866.84
2022-08-10T14:08:30.185Z,98858.13
2022-08-10T14:11:08.806Z,98854.06
2022-08-10T14:13:43.661Z,98850.66
2022-08-10T14:16:12.833Z,98845.69
2022-08-10T14:18:44.872Z,98851.19
2022-08-10T14:21:14.763Z,98848.09
2022-08-10T14:23:53.112Z,98840.69
2022-08-10T14:26:24.724Z,98841.53
2022-08-10T14:28:56.354Z,98847.06
2022-08-10T14:31:29.984Z,98842.91
2022-08-10T14:34:00.257Z,98850.56
2022-08-10T14:36:37.816Z,98849.53
2022-08-10T14:39:07.072Z,98858.47
2022-08-10T14:42:03.261Z,98850.34
2022-08-10T14:44:28.504Z,98827.41
2022-08-10T14:46:59.421Z,98845.34
2022-08-10T14:49:29.423Z,98845.72
2022-08-10T14:52:26.873Z,98841.63
2022-08-10T14:54:57.987Z,98839.78
2022-08-10T14:58:17.251Z,98829.97
2022-08-10T15:00:37.873Z,98834.53
2022-08-10T15:03:49.404Z,98824.44
2022-08-10T15:05:59.049Z,98831.31
2022-08-10T15:08:37.025Z,98829.88
2022-08-10T15:11:06.063Z,98821.44
2022-08-10T15:13:35.496Z,98832.41
2022-08-10T15:16:13.864Z,98819.28
2022-08-10T15:18:57.988Z,98829.25
2022-08-10T15:21:42.916Z,98821.44
2022-08-10T15:24:39.795Z,98811.94
2022-08-10T15:27:10.485Z,98820.69
2022-08-10T15:29:57.044Z,98815.53
2022-08-10T15:32:52.278Z,98816.41
2022-08-10T15:35:41.999Z,98809.25
2022-08-10T15:38:11.354Z,98821.13
2022-08-10T15:40:52.601Z,98813.47
2022-08-10T15:43:26.694Z,98813.25
2022-08-10T15:46:01.726Z,98812.19
2022-08-10T15:48:33.477Z,98811.56
2022-08-10T15:51:05.694Z,98809.41
2022-08-10T15:53:49.210Z,98815.72
2022-08-10T15:56:28.159Z,98811.81
2022-08-10T15:59:08.265Z,98815.44
2022-08-10T16:02:13.291Z,98817.13
2022-08-10T16:04:37.230Z,98816.22
2022-08-10T16:07:09.848Z,98822.78
2022-08-10T16:10:24.331Z,98817.28
2022-08-10T16:12:37.769Z,98815.59
2022-08-10T16:15:10.603Z,98818.09
2022-08-10T16:17:55.440Z,98821.16
2022-08-10T16:20:31.097Z,98823.47
2022-08-10T16:23:03.684Z,98823.34
2022-08-10T16:25:48.393Z,98818.09
2022-08-10T16:28:29.422Z,98809.75
2022-08-10T16:31:00.034Z,98818.47
2022-08-10T16:33:53.644Z,98812.97
2022-08-10T16:36:22.453Z,98819.31
2022-08-10T16:38:53.298Z,98814.44
2022-08-10T16:42:00.547Z,98816.88
2022-08-10T16:44:17.930Z,98816.75
2022-08-10T16:46:47.438Z,98819.81
2022-08-10T16:49:19.024Z,98818.88
2022-08-10T16:51:49.060Z,98813.53
2022-08-10T16:54:26.343Z,98817.03
2022-08-10T16:57:01.735Z,98817.44
2022-08-10T16:59:34.991Z,98814.50
2022-08-10T17:02:04.121Z,98817.78
2022-08-10T17:04:34.829Z,98822.69
2022-08-10T17:07:07.229Z,98823.31
2022-08-10T17:09:38.450Z,98822.91
2022-08-10T17:12:10.717Z,98822.91
2022-08-10T17:14:42.408Z,98826.53
2022-08-10T17:17:15.026Z,98829.03
2022-08-10T17:19:45.882Z,98825.09
2022-08-10T17:22:15.838Z,98830.59
2022-08-10T17:24:47.349Z,98818.56
2022-08-10T17:28:05.072Z,98826.47
2022-08-10T17:30:15.675Z,98821.81
2022-08-10T17:32:50.559Z,98821.88
2022-08-10T17:35:23.914Z,98818.69
2022-08-10T17:37:57.429Z,98822.69
2022-08-10T17:40:28.443Z,98816.78
2022-08-10T17:42:58.065Z,98814.03
2022-08-10T17:45:46.693Z,98816.03
2022-08-10T17:48:19.020Z,98816.47
2022-08-10T17:50:50.640Z,98823.59
2022-08-10T17:53:23.357Z,98822.81
2022-08-10T17:55:56.581Z,98825.19
2022-08-10T17:58:27.594Z,98825.97
2022-08-10T18:01:40.783Z,98825.59
2022-08-10T18:03:53.061Z,98827.97
2022-08-10T18:06:22.789Z,98826.78
2022-08-10T18:08:57.788Z,98833.09
2022-08-10T18:11:29.546Z,98829.13
2022-08-10T18:14:01.622Z,98834.66
2022-08-10T18:16:31.161Z,98832.28
2022-08-10T18:19:08.752Z,98833.88
2022-08-10T18:21:41.441Z,98834.25
2022-08-10T18:24:16.300Z,98839.38
2022-08-10T18:26:46.770Z,98846.13
2022-08-10T18:29:18.896Z,98832.66
2022-08-10T18:31:55.112Z,98840.94
2022-08-10T18:34:25.491Z,98842.16
2022-08-10T18:36:54.966Z,98833.81
2022-08-10T18:39:26.926Z,98848.06
2022-08-10T18:42:05.524Z,98851.59
2022-08-10T18:44:37.023Z,98847.56
2022-08-10T18:47:13.187Z,98853.44
2022-08-10T18:49:54.679Z,98851.03
2022-08-10T18:52:27.045Z,98856.56
2022-08-10T18:55:04.870Z,98857.34
2022-08-10T18:57:59.146Z,98854.56
2022-08-10T19:00:34.308Z,98862.44
2022-08-10T19:03:32.558Z,98859.66
2022-08-10T19:06:17.827Z,98866.78
2022-08-10T19:08:57.068Z,98869.94
2022-08-10T19:11:38.302Z,98867.91
2022-08-10T19:14:14.729Z,98870.63
2022-08-10T19:16:50.244Z,98861.09
2022-08-10T19:19:34.113Z,98870.88
2022-08-10T19:22:05.830Z,98870.88
2022-08-10T19:24:49.091Z,98874.38
2022-08-10T19:27:40.126Z,98880.28
2022-08-10T19:30:13.376Z,98879.03
2022-08-10T19:32:55.898Z,98886.16
2022-08-10T19:35:34.525Z,98875.84
2022-08-10T19:38:33.186Z,98879.69
2022-08-10T19:41:10.348Z,98877.25
2022-08-10T19:44:00.251Z,98880.78
2022-08-10T19:46:40.140Z,98881.13
2022-08-10T19:49:18.474Z,98878.75
2022-08-10T19:51:56.450Z,98877.59
2022-08-10T19:54:31.992Z,98878.78
2022-08-10T19:57:08.512Z,98870.50
2022-08-10T20:00:16.346Z,98874.84
2022-08-10T20:02:48.097Z,98868.53
2022-08-10T20:05:26.959Z,98870.16
2022-08-10T20:08:03.548Z,98869.38
2022-08-10T20:10:38.449Z,98870.91
2022-08-10T20:13:26.709Z,98866.47
2022-08-10T20:15:59.062Z,98869.66
2022-08-10T20:18:31.706Z,98863.72
2022-08-10T20:21:04.391Z,98869.59
2022-08-10T20:23:36.917Z,98856.81
2022-08-10T20:26:11.841Z,98872.28
2022-08-10T20:28:43.326Z,98873.16
2022-08-10T20:31:17.596Z,98867.19
2022-08-10T20:34:00.902Z,98857.31
2022-08-10T20:36:33.182Z,98863.53
2022-08-10T20:39:17.557Z,98858.03
2022-08-10T20:42:01.101Z,98861.94
2022-08-10T20:44:41.947Z,98856.34
2022-08-10T20:47:14.624Z,98860.34
2022-08-10T20:49:51.624Z,98857.13
2022-08-10T20:52:21.731Z,98868.81
2022-08-10T20:54:55.058Z,98867.22
2022-08-10T20:58:04.740Z,98860.09
2022-08-10T21:00:25.689Z,98868.72
2022-08-10T21:03:33.819Z,98867.94
2022-08-10T21:06:35.991Z,98861.13
2022-08-10T21:09:22.170Z,98867.28
2022-08-10T21:12:16.352Z,98856.16
2022-08-10T21:14:54.428Z,98858.97
2022-08-10T21:17:44.534Z,98856.50
2022-08-10T21:20:30.770Z,98858.88
2022-08-10T21:23:05.178Z,98855.31
2022-08-10T21:25:43.372Z,98857.25
2022-08-10T21:28:31.218Z,98849.22
2022-08-10T21:34:12.579Z,98852.47
2022-08-10T21:36:47.531Z,98847.53
2022-08-10T21:39:21.894Z,98841.81
2022-08-10T21:42:37.707Z,98848.81
2022-08-10T21:45:58.113Z,98854.34
2022-08-10T21:48:57.171Z,98852.63
2022-08-10T21:52:04.097Z,98853.41
2022-08-10T21:54:58.814Z,98830.31
2022-08-10T21:57:48.953Z,98850.84
2022-08-10T22:00:36.532Z,98845.97
2022-08-10T22:03:24.281Z,98841.69
2022-08-10T22:06:12.917Z,98845.91
2022-08-10T22:31:28.639Z,98854.81
2022-08-10T23:11:17.395Z,98817.69
2022-08-10T23:13:48.254Z,98820.50
2022-08-10T23:16:37.854Z,98820.50
2022-08-10T23:19:09.874Z,98823.00
2022-08-10T23:22:04.120Z,98818.28
2022-08-10T23:24:37.475Z,98824.50
2022-08-10T23:27:12.406Z,98819.81
2022-08-10T23:30:10.880Z,98830.00
2022-08-10T23:32:37.245Z,98819.72
2022-08-10T23:36:31.774Z,98825.06
2022-08-10T23:38:00.394Z,98818.28
2022-08-10T23:40:29.382Z,98811.47
2022-08-10T23:42:58.605Z,98814.06
2022-08-10T23:45:52.749Z,98813.59
2022-08-10T23:48:21.161Z,98808.56
2022-08-10T23:50:53.385Z,98805.09
2022-08-10T23:53:31.105Z,98806.06
2022-08-10T23:56:01.925Z,98809.94
2022-08-10T23:58:38.686Z,98800.75
